sensor_id;sensor_type;location;lat;lon;timestamp;P1;durP1;ratioP1;P2;durP2;ratioP2
48034;SDS011;33812;46.480;6.834;2023-07-13T00:02:39;4.68;;;2.30;;
48034;SDS011;33812;46.480;6.834;2023-07-13T00:06:41;3.80;;;2.28;;
48034;SDS011;33812;46.480;6.834;2023-07-13T00:10:45;4.37;;;2.10;;
48034;SDS011;33812;46.480;6.834;2023-07-13T00:14:48;4.70;;;2.58;;
48034;SDS011;33812;46.480;6.834;2023-07-13T00:18:50;4.75;;;2.50;;
48034;SDS011;33812;46.480;6.834;2023-07-13T00:22:52;6.47;;;2.30;;
48034;SDS011;33812;46.480;6.834;2023-07-13T00:26:54;6.70;;;2.28;;
48034;SDS011;33812;46.480;6.834;2023-07-13T00:30:58;7.03;;;2.60;;
48034;SDS011;33812;46.480;6.834;2023-07-13T00:35:00;4.70;;;2.25;;
48034;SDS011;33812;46.480;6.834;2023-07-13T00:39:03;7.00;;;2.45;;
48034;SDS011;33812;46.480;6.834;2023-07-13T00:43:08;7.55;;;2.83;;
48034;SDS011;33812;46.480;6.834;2023-07-13T00:47:19;5.13;;;2.63;;
48034;SDS011;33812;46.480;6.834;2023-07-13T00:51:23;7.22;;;2.25;;
48034;SDS011;33812;46.480;6.834;2023-07-13T00:55:28;6.90;;;2.53;;
48034;SDS011;33812;46.480;6.834;2023-07-13T00:59:31;4.07;;;2.05;;
48034;SDS011;33812;46.480;6.834;2023-07-13T01:03:35;2.97;;;2.10;;
48034;SDS011;33812;46.480;6.834;2023-07-13T01:07:38;4.80;;;2.33;;
48034;SDS011;33812;46.480;6.834;2023-07-13T01:11:40;4.45;;;2.30;;
48034;SDS011;33812;46.480;6.834;2023-07-13T01:15:43;5.68;;;2.20;;
48034;SDS011;33812;46.480;6.834;2023-07-13T01:19:48;5.35;;;2.05;;
48034;SDS011;33812;46.480;6.834;2023-07-13T01:23:52;3.05;;;1.95;;
48034;SDS011;33812;46.480;6.834;2023-07-13T01:27:54;3.90;;;2.22;;
48034;SDS011;33812;46.480;6.834;2023-07-13T01:31:55;3.08;;;2.30;;
48034;SDS011;33812;46.480;6.834;2023-07-13T01:35:57;3.90;;;2.28;;
48034;SDS011;33812;46.480;6.834;2023-07-13T01:40:00;5.50;;;2.28;;
48034;SDS011;33812;46.480;6.834;2023-07-13T01:44:03;3.50;;;2.20;;
48034;SDS011;33812;46.480;6.834;2023-07-13T01:48:05;6.10;;;2.30;;
48034;SDS011;33812;46.480;6.834;2023-07-13T01:52:07;4.50;;;2.25;;
48034;SDS011;33812;46.480;6.834;2023-07-13T01:56:11;7.55;;;2.30;;
48034;SDS011;33812;46.480;6.834;2023-07-13T02:00:13;7.57;;;2.42;;
48034;SDS011;33812;46.480;6.834;2023-07-13T02:04:15;4.88;;;2.40;;
48034;SDS011;33812;46.480;6.834;2023-07-13T02:08:17;5.25;;;1.95;;
48034;SDS011;33812;46.480;6.834;2023-07-13T02:12:20;7.28;;;2.40;;
48034;SDS011;33812;46.480;6.834;2023-07-13T02:16:22;3.13;;;2.10;;
48034;SDS011;33812;46.480;6.834;2023-07-13T02:20:24;4.88;;;2.25;;
48034;SDS011;33812;46.480;6.834;2023-07-13T02:24:26;3.05;;;2.10;;
48034;SDS011;33812;46.480;6.834;2023-07-13T02:28:29;3.92;;;2.55;;
48034;SDS011;33812;46.480;6.834;2023-07-13T02:32:31;5.22;;;2.20;;
48034;SDS011;33812;46.480;6.834;2023-07-13T02:36:33;5.65;;;2.10;;
48034;SDS011;33812;46.480;6.834;2023-07-13T02:40:35;4.28;;;2.08;;
48034;SDS011;33812;46.480;6.834;2023-07-13T02:44:39;3.00;;;2.38;;
48034;SDS011;33812;46.480;6.834;2023-07-13T02:48:41;6.18;;;2.00;;
48034;SDS011;33812;46.480;6.834;2023-07-13T02:52:43;2.47;;;1.80;;
48034;SDS011;33812;46.480;6.834;2023-07-13T02:56:45;2.70;;;1.77;;
48034;SDS011;33812;46.480;6.834;2023-07-13T03:00:48;5.88;;;1.85;;
48034;SDS011;33812;46.480;6.834;2023-07-13T03:04:50;5.43;;;1.75;;
48034;SDS011;33812;46.480;6.834;2023-07-13T03:08:52;2.33;;;1.48;;
48034;SDS011;33812;46.480;6.834;2023-07-13T03:12:53;6.25;;;1.60;;
48034;SDS011;33812;46.480;6.834;2023-07-13T03:16:57;3.03;;;1.70;;
48034;SDS011;33812;46.480;6.834;2023-07-13T03:20:58;2.53;;;1.55;;
48034;SDS011;33812;46.480;6.834;2023-07-13T03:25:00;4.00;;;1.70;;
48034;SDS011;33812;46.480;6.834;2023-07-13T03:29:02;5.90;;;1.90;;
48034;SDS011;33812;46.480;6.834;2023-07-13T03:33:05;3.47;;;2.00;;
48034;SDS011;33812;46.480;6.834;2023-07-13T03:37:07;4.68;;;2.00;;
48034;SDS011;33812;46.480;6.834;2023-07-13T03:41:09;4.85;;;2.22;;
48034;SDS011;33812;46.480;6.834;2023-07-13T03:45:11;3.53;;;1.35;;
48034;SDS011;33812;46.480;6.834;2023-07-13T03:49:14;2.80;;;1.77;;
48034;SDS011;33812;46.480;6.834;2023-07-13T03:53:15;3.35;;;1.27;;
48034;SDS011;33812;46.480;6.834;2023-07-13T03:57:18;4.75;;;1.27;;
48034;SDS011;33812;46.480;6.834;2023-07-13T04:01:21;2.85;;;1.00;;
48034;SDS011;33812;46.480;6.834;2023-07-13T04:05:26;3.22;;;1.02;;
48034;SDS011;33812;46.480;6.834;2023-07-13T04:09:28;2.30;;;1.25;;
48034;SDS011;33812;46.480;6.834;2023-07-13T04:13:29;1.52;;;0.90;;
48034;SDS011;33812;46.480;6.834;2023-07-13T04:17:32;5.93;;;1.30;;
48034;SDS011;33812;46.480;6.834;2023-07-13T04:21:35;2.10;;;0.95;;
48034;SDS011;33812;46.480;6.834;2023-07-13T04:25:38;1.73;;;0.60;;
48034;SDS011;33812;46.480;6.834;2023-07-13T04:29:39;4.03;;;1.30;;
48034;SDS011;33812;46.480;6.834;2023-07-13T04:33:41;1.38;;;0.63;;
48034;SDS011;33812;46.480;6.834;2023-07-13T04:37:45;1.52;;;0.80;;
48034;SDS011;33812;46.480;6.834;2023-07-13T04:41:46;4.15;;;1.10;;
48034;SDS011;33812;46.480;6.834;2023-07-13T04:45:48;3.53;;;0.70;;
48034;SDS011;33812;46.480;6.834;2023-07-13T04:49:51;4.57;;;0.77;;
48034;SDS011;33812;46.480;6.834;2023-07-13T04:53:54;18.15;;;0.93;;
48034;SDS011;33812;46.480;6.834;2023-07-13T04:57:56;0.98;;;0.60;;
48034;SDS011;33812;46.480;6.834;2023-07-13T05:01:59;5.03;;;1.10;;
48034;SDS011;33812;46.480;6.834;2023-07-13T05:06:05;1.83;;;0.63;;
48034;SDS011;33812;46.480;6.834;2023-07-13T05:10:11;4.55;;;0.60;;
48034;SDS011;33812;46.480;6.834;2023-07-13T05:14:13;2.80;;;1.08;;
48034;SDS011;33812;46.480;6.834;2023-07-13T05:18:16;12.13;;;1.13;;
48034;SDS011;33812;46.480;6.834;2023-07-13T05:22:18;3.78;;;0.95;;
48034;SDS011;33812;46.480;6.834;2023-07-13T05:26:21;5.63;;;0.80;;
48034;SDS011;33812;46.480;6.834;2023-07-13T05:30:23;1.88;;;0.75;;
48034;SDS011;33812;46.480;6.834;2023-07-13T05:34:25;6.32;;;0.70;;
48034;SDS011;33812;46.480;6.834;2023-07-13T05:38:26;5.43;;;1.30;;
48034;SDS011;33812;46.480;6.834;2023-07-13T05:42:30;0.90;;;0.70;;
48034;SDS011;33812;46.480;6.834;2023-07-13T05:46:32;7.82;;;1.17;;
48034;SDS011;33812;46.480;6.834;2023-07-13T05:50:34;13.55;;;1.00;;
48034;SDS011;33812;46.480;6.834;2023-07-13T05:54:36;8.77;;;0.75;;
48034;SDS011;33812;46.480;6.834;2023-07-13T05:58:39;2.13;;;0.93;;
48034;SDS011;33812;46.480;6.834;2023-07-13T06:02:41;6.68;;;1.05;;
48034;SDS011;33812;46.480;6.834;2023-07-13T06:06:43;13.55;;;1.17;;
48034;SDS011;33812;46.480;6.834;2023-07-13T06:10:45;4.10;;;0.80;;
48034;SDS011;33812;46.480;6.834;2023-07-13T06:14:48;10.30;;;1.33;;
48034;SDS011;33812;46.480;6.834;2023-07-13T06:18:50;11.32;;;1.25;;
48034;SDS011;33812;46.480;6.834;2023-07-13T06:22:51;3.35;;;1.00;;
48034;SDS011;33812;46.480;6.834;2023-07-13T06:26:53;2.00;;;0.93;;
48034;SDS011;33812;46.480;6.834;2023-07-13T06:30:56;4.43;;;0.93;;
48034;SDS011;33812;46.480;6.834;2023-07-13T06:34:58;6.25;;;1.05;;
48034;SDS011;33812;46.480;6.834;2023-07-13T06:39:00;6.80;;;1.00;;
48034;SDS011;33812;46.480;6.834;2023-07-13T06:43:02;7.53;;;1.13;;
48034;SDS011;33812;46.480;6.834;2023-07-13T06:47:05;5.00;;;1.13;;
48034;SDS011;33812;46.480;6.834;2023-07-13T06:51:07;2.57;;;0.80;;
48034;SDS011;33812;46.480;6.834;2023-07-13T06:55:09;5.43;;;0.90;;
48034;SDS011;33812;46.480;6.834;2023-07-13T06:59:11;4.30;;;0.77;;
48034;SDS011;33812;46.480;6.834;2023-07-13T07:03:14;2.65;;;0.90;;
48034;SDS011;33812;46.480;6.834;2023-07-13T07:07:16;3.10;;;0.85;;
48034;SDS011;33812;46.480;6.834;2023-07-13T07:11:22;13.70;;;1.20;;
48034;SDS011;33812;46.480;6.834;2023-07-13T07:15:25;5.28;;;1.20;;
48034;SDS011;33812;46.480;6.834;2023-07-13T07:19:29;4.82;;;1.45;;
48034;SDS011;33812;46.480;6.834;2023-07-13T07:23:31;3.05;;;1.17;;
48034;SDS011;33812;46.480;6.834;2023-07-13T07:27:33;8.68;;;1.17;;
48034;SDS011;33812;46.480;6.834;2023-07-13T07:31:35;4.55;;;0.90;;
48034;SDS011;33812;46.480;6.834;2023-07-13T07:35:39;11.57;;;1.00;;
48034;SDS011;33812;46.480;6.834;2023-07-13T07:39:40;2.47;;;0.95;;
48034;SDS011;33812;46.480;6.834;2023-07-13T07:43:43;5.38;;;1.25;;
48034;SDS011;33812;46.480;6.834;2023-07-13T07:47:45;2.05;;;1.00;;
48034;SDS011;33812;46.480;6.834;2023-07-13T07:51:48;4.65;;;1.33;;
48034;SDS011;33812;46.480;6.834;2023-07-13T07:55:50;7.25;;;1.20;;
48034;SDS011;33812;46.480;6.834;2023-07-13T07:59:53;15.50;;;1.38;;
48034;SDS011;33812;46.480;6.834;2023-07-13T08:03:54;4.70;;;0.95;;
48034;SDS011;33812;46.480;6.834;2023-07-13T08:07:57;11.07;;;1.20;;
48034;SDS011;33812;46.480;6.834;2023-07-13T08:11:59;7.60;;;1.15;;
48034;SDS011;33812;46.480;6.834;2023-07-13T08:16:03;3.97;;;1.30;;
48034;SDS011;33812;46.480;6.834;2023-07-13T08:20:06;4.47;;;1.35;;
48034;SDS011;33812;46.480;6.834;2023-07-13T08:24:10;26.58;;;2.05;;
48034;SDS011;33812;46.480;6.834;2023-07-13T08:28:12;8.30;;;1.23;;
48034;SDS011;33812;46.480;6.834;2023-07-13T08:32:14;7.97;;;1.30;;
48034;SDS011;33812;46.480;6.834;2023-07-13T08:36:16;7.97;;;1.70;;
48034;SDS011;33812;46.480;6.834;2023-07-13T08:40:19;8.10;;;1.35;;
48034;SDS011;33812;46.480;6.834;2023-07-13T08:44:27;9.80;;;1.30;;
48034;SDS011;33812;46.480;6.834;2023-07-13T08:48:40;10.07;;;1.17;;
48034;SDS011;33812;46.480;6.834;2023-07-13T08:52:45;11.02;;;1.23;;
48034;SDS011;33812;46.480;6.834;2023-07-13T08:56:49;7.00;;;1.40;;
48034;SDS011;33812;46.480;6.834;2023-07-13T09:00:55;5.32;;;1.10;;
48034;SDS011;33812;46.480;6.834;2023-07-13T09:05:04;10.68;;;1.80;;
48034;SDS011;33812;46.480;6.834;2023-07-13T09:09:15;5.90;;;1.38;;
48034;SDS011;33812;46.480;6.834;2023-07-13T09:13:29;5.77;;;1.27;;
48034;SDS011;33812;46.480;6.834;2023-07-13T09:17:40;3.33;;;1.08;;
48034;SDS011;33812;46.480;6.834;2023-07-13T09:21:49;7.90;;;1.30;;
48034;SDS011;33812;46.480;6.834;2023-07-13T09:25:56;5.03;;;1.08;;
48034;SDS011;33812;46.480;6.834;2023-07-13T09:30:11;9.52;;;1.23;;
48034;SDS011;33812;46.480;6.834;2023-07-13T09:34:25;2.72;;;1.00;;
48034;SDS011;33812;46.480;6.834;2023-07-13T09:38:28;1.88;;;0.85;;
48034;SDS011;33812;46.480;6.834;2023-07-13T09:42:31;4.50;;;0.83;;
48034;SDS011;33812;46.480;6.834;2023-07-13T09:46:36;4.07;;;1.02;;
48034;SDS011;33812;46.480;6.834;2023-07-13T09:50:38;3.00;;;1.85;;
48034;SDS011;33812;46.480;6.834;2023-07-13T09:54:43;2.55;;;1.00;;
48034;SDS011;33812;46.480;6.834;2023-07-13T09:58:49;3.13;;;0.80;;
48034;SDS011;33812;46.480;6.834;2023-07-13T10:03:03;2.85;;;1.00;;
48034;SDS011;33812;46.480;6.834;2023-07-13T10:07:06;2.77;;;1.07;;
48034;SDS011;33812;46.480;6.834;2023-07-13T10:11:10;5.40;;;0.97;;
48034;SDS011;33812;46.480;6.834;2023-07-13T10:15:19;3.17;;;1.05;;
48034;SDS011;33812;46.480;6.834;2023-07-13T10:19:25;1.35;;;0.85;;
48034;SDS011;33812;46.480;6.834;2023-07-13T10:23:32;2.65;;;0.90;;
48034;SDS011;33812;46.480;6.834;2023-07-13T10:27:36;3.30;;;1.20;;
48034;SDS011;33812;46.480;6.834;2023-07-13T10:31:38;3.28;;;0.95;;
48034;SDS011;33812;46.480;6.834;2023-07-13T10:35:42;2.15;;;0.90;;
48034;SDS011;33812;46.480;6.834;2023-07-13T10:39:46;2.50;;;0.80;;
48034;SDS011;33812;46.480;6.834;2023-07-13T10:43:49;1.35;;;0.90;;
48034;SDS011;33812;46.480;6.834;2023-07-13T10:47:54;7.18;;;1.38;;
48034;SDS011;33812;46.480;6.834;2023-07-13T10:51:58;2.60;;;1.00;;
48034;SDS011;33812;46.480;6.834;2023-07-13T10:56:01;1.33;;;1.10;;
48034;SDS011;33812;46.480;6.834;2023-07-13T11:00:15;2.60;;;1.10;;
48034;SDS011;33812;46.480;6.834;2023-07-13T11:04:19;2.63;;;0.93;;
48034;SDS011;33812;46.480;6.834;2023-07-13T11:08:32;2.92;;;0.80;;
48034;SDS011;33812;46.480;6.834;2023-07-13T11:12:50;1.65;;;0.90;;
48034;SDS011;33812;46.480;6.834;2023-07-13T11:16:53;2.22;;;1.02;;
48034;SDS011;33812;46.480;6.834;2023-07-13T11:25:29;5.40;;;1.00;;
48034;SDS011;33812;46.480;6.834;2023-07-13T11:29:33;3.38;;;1.08;;
48034;SDS011;33812;46.480;6.834;2023-07-13T11:33:50;1.85;;;0.90;;
48034;SDS011;33812;46.480;6.834;2023-07-13T11:37:54;1.95;;;1.33;;
48034;SDS011;33812;46.480;6.834;2023-07-13T11:41:59;3.03;;;1.00;;
48034;SDS011;33812;46.480;6.834;2023-07-13T11:46:13;4.07;;;1.35;;
48034;SDS011;33812;46.480;6.834;2023-07-13T11:50:24;3.42;;;1.15;;
48034;SDS011;33812;46.480;6.834;2023-07-13T11:54:27;4.78;;;1.17;;
48034;SDS011;33812;46.480;6.834;2023-07-13T11:58:31;5.87;;;1.13;;
48034;SDS011;33812;46.480;6.834;2023-07-13T12:02:34;1.35;;;0.90;;
48034;SDS011;33812;46.480;6.834;2023-07-13T12:06:40;3.40;;;1.23;;
48034;SDS011;33812;46.480;6.834;2023-07-13T12:10:43;5.63;;;1.35;;
48034;SDS011;33812;46.480;6.834;2023-07-13T12:14:51;8.27;;;1.50;;
48034;SDS011;33812;46.480;6.834;2023-07-13T12:18:55;2.92;;;1.00;;
48034;SDS011;33812;46.480;6.834;2023-07-13T12:22:57;2.28;;;0.73;;
48034;SDS011;33812;46.480;6.834;2023-07-13T12:27:00;2.70;;;1.10;;
48034;SDS011;33812;46.480;6.834;2023-07-13T12:31:06;3.42;;;1.08;;
48034;SDS011;33812;46.480;6.834;2023-07-13T12:35:16;9.35;;;1.33;;
48034;SDS011;33812;46.480;6.834;2023-07-13T12:39:20;1.88;;;1.05;;
48034;SDS011;33812;46.480;6.834;2023-07-13T12:43:23;5.57;;;1.25;;
48034;SDS011;33812;46.480;6.834;2023-07-13T12:47:28;2.53;;;1.40;;
48034;SDS011;33812;46.480;6.834;2023-07-13T12:51:30;1.48;;;0.90;;
48034;SDS011;33812;46.480;6.834;2023-07-13T12:55:39;1.50;;;1.00;;
48034;SDS011;33812;46.480;6.834;2023-07-13T12:59:43;2.88;;;1.42;;
48034;SDS011;33812;46.480;6.834;2023-07-13T13:03:47;2.13;;;0.95;;
48034;SDS011;33812;46.480;6.834;2023-07-13T13:07:51;2.30;;;1.05;;
48034;SDS011;33812;46.480;6.834;2023-07-13T13:11:53;3.28;;;0.95;;
48034;SDS011;33812;46.480;6.834;2023-07-13T13:15:55;2.47;;;1.17;;
48034;SDS011;33812;46.480;6.834;2023-07-13T13:19:59;1.27;;;0.98;;
48034;SDS011;33812;46.480;6.834;2023-07-13T13:24:00;1.67;;;0.90;;
48034;SDS011;33812;46.480;6.834;2023-07-13T13:28:02;2.72;;;1.00;;
48034;SDS011;33812;46.480;6.834;2023-07-13T13:32:04;1.83;;;0.77;;
48034;SDS011;33812;46.480;6.834;2023-07-13T13:36:16;2.63;;;1.10;;
48034;SDS011;33812;46.480;6.834;2023-07-13T13:40:20;1.65;;;1.10;;
48034;SDS011;33812;46.480;6.834;2023-07-13T13:44:23;8.50;;;1.17;;
48034;SDS011;33812;46.480;6.834;2023-07-13T13:48:26;1.15;;;0.80;;
48034;SDS011;33812;46.480;6.834;2023-07-13T13:52:33;2.13;;;0.90;;
48034;SDS011;33812;46.480;6.834;2023-07-13T13:56:35;1.48;;;0.98;;
48034;SDS011;33812;46.480;6.834;2023-07-13T14:00:37;4.28;;;0.90;;
48034;SDS011;33812;46.480;6.834;2023-07-13T14:04:39;1.67;;;0.88;;
48034;SDS011;33812;46.480;6.834;2023-07-13T14:08:42;3.85;;;0.88;;
48034;SDS011;33812;46.480;6.834;2023-07-13T14:12:45;1.67;;;0.80;;
48034;SDS011;33812;46.480;6.834;2023-07-13T14:16:48;3.83;;;1.80;;
48034;SDS011;33812;46.480;6.834;2023-07-13T14:24:56;2.60;;;0.90;;
48034;SDS011;33812;46.480;6.834;2023-07-13T14:28:59;1.10;;;0.80;;
48034;SDS011;33812;46.480;6.834;2023-07-13T14:33:01;1.73;;;1.00;;
48034;SDS011;33812;46.480;6.834;2023-07-13T14:37:03;1.90;;;0.80;;
48034;SDS011;33812;46.480;6.834;2023-07-13T14:41:08;0.82;;;0.60;;
48034;SDS011;33812;46.480;6.834;2023-07-13T14:45:13;3.65;;;0.80;;
48034;SDS011;33812;46.480;6.834;2023-07-13T14:49:23;2.55;;;0.85;;
48034;SDS011;33812;46.480;6.834;2023-07-13T14:53:27;3.35;;;0.90;;
48034;SDS011;33812;46.480;6.834;2023-07-13T14:57:31;1.40;;;0.80;;
48034;SDS011;33812;46.480;6.834;2023-07-13T15:01:32;1.63;;;0.88;;
48034;SDS011;33812;46.480;6.834;2023-07-13T15:05:35;2.17;;;0.70;;
48034;SDS011;33812;46.480;6.834;2023-07-13T15:09:37;8.00;;;0.95;;
48034;SDS011;33812;46.480;6.834;2023-07-13T15:13:40;2.10;;;0.80;;
48034;SDS011;33812;46.480;6.834;2023-07-13T15:17:45;1.15;;;0.80;;
48034;SDS011;33812;46.480;6.834;2023-07-13T15:21:49;1.95;;;0.80;;
48034;SDS011;33812;46.480;6.834;2023-07-13T15:25:52;1.23;;;0.90;;
48034;SDS011;33812;46.480;6.834;2023-07-13T15:29:55;0.80;;;0.70;;
48034;SDS011;33812;46.480;6.834;2023-07-13T15:33:57;1.58;;;0.75;;
48034;SDS011;33812;46.480;6.834;2023-07-13T15:37:59;1.40;;;0.70;;
48034;SDS011;33812;46.480;6.834;2023-07-13T15:42:03;2.47;;;0.90;;
48034;SDS011;33812;46.480;6.834;2023-07-13T15:46:06;3.25;;;1.10;;
48034;SDS011;33812;46.480;6.834;2023-07-13T15:50:11;0.93;;;0.80;;
48034;SDS011;33812;46.480;6.834;2023-07-13T15:54:14;1.10;;;0.82;;
48034;SDS011;33812;46.480;6.834;2023-07-13T15:58:18;2.15;;;0.80;;
48034;SDS011;33812;46.480;6.834;2023-07-13T16:02:21;2.10;;;0.73;;
48034;SDS011;33812;46.480;6.834;2023-07-13T16:06:24;3.85;;;1.00;;
48034;SDS011;33812;46.480;6.834;2023-07-13T16:10:30;1.80;;;0.90;;
48034;SDS011;33812;46.480;6.834;2023-07-13T16:14:34;1.38;;;1.00;;
48034;SDS011;33812;46.480;6.834;2023-07-13T16:18:38;1.77;;;0.82;;
48034;SDS011;33812;46.480;6.834;2023-07-13T16:22:40;1.20;;;0.70;;
48034;SDS011;33812;46.480;6.834;2023-07-13T16:26:46;2.25;;;0.90;;
48034;SDS011;33812;46.480;6.834;2023-07-13T16:30:49;2.88;;;0.90;;
48034;SDS011;33812;46.480;6.834;2023-07-13T16:34:52;2.80;;;0.88;;
48034;SDS011;33812;46.480;6.834;2023-07-13T16:38:54;2.85;;;0.75;;
48034;SDS011;33812;46.480;6.834;2023-07-13T16:42:56;2.85;;;0.70;;
48034;SDS011;33812;46.480;6.834;2023-07-13T16:46:59;1.90;;;0.95;;
48034;SDS011;33812;46.480;6.834;2023-07-13T16:51:03;1.25;;;0.70;;
48034;SDS011;33812;46.480;6.834;2023-07-13T16:55:08;1.95;;;1.00;;
48034;SDS011;33812;46.480;6.834;2023-07-13T16:59:12;4.88;;;1.27;;
48034;SDS011;33812;46.480;6.834;2023-07-13T17:03:16;1.60;;;0.70;;
48034;SDS011;33812;46.480;6.834;2023-07-13T17:07:20;1.75;;;0.90;;
48034;SDS011;33812;46.480;6.834;2023-07-13T17:11:23;1.60;;;0.80;;
48034;SDS011;33812;46.480;6.834;2023-07-13T17:15:26;3.65;;;1.10;;
48034;SDS011;33812;46.480;6.834;2023-07-13T17:19:30;2.13;;;1.03;;
48034;SDS011;33812;46.480;6.834;2023-07-13T17:23:36;0.90;;;0.80;;
48034;SDS011;33812;46.480;6.834;2023-07-13T17:27:38;1.35;;;0.90;;
48034;SDS011;33812;46.480;6.834;2023-07-13T17:31:39;5.00;;;1.00;;
48034;SDS011;33812;46.480;6.834;2023-07-13T17:35:43;3.13;;;0.93;;
48034;SDS011;33812;46.480;6.834;2023-07-13T17:39:46;2.58;;;1.00;;
48034;SDS011;33812;46.480;6.834;2023-07-13T17:43:48;3.65;;;1.00;;
48034;SDS011;33812;46.480;6.834;2023-07-13T17:47:49;3.55;;;0.90;;
48034;SDS011;33812;46.480;6.834;2023-07-13T17:51:53;4.15;;;0.80;;
48034;SDS011;33812;46.480;6.834;2023-07-13T17:55:56;2.30;;;0.75;;
48034;SDS011;33812;46.480;6.834;2023-07-13T17:59:57;5.45;;;0.85;;
48034;SDS011;33812;46.480;6.834;2023-07-13T18:03:59;3.97;;;0.90;;
48034;SDS011;33812;46.480;6.834;2023-07-13T18:12:08;6.57;;;0.90;;
48034;SDS011;33812;46.480;6.834;2023-07-13T18:16:14;3.35;;;1.10;;
48034;SDS011;33812;46.480;6.834;2023-07-13T18:20:19;3.42;;;0.88;;
48034;SDS011;33812;46.480;6.834;2023-07-13T18:24:22;3.05;;;0.98;;
48034;SDS011;33812;46.480;6.834;2023-07-13T18:28:25;5.22;;;1.20;;
48034;SDS011;33812;46.480;6.834;2023-07-13T18:32:27;4.95;;;1.05;;
48034;SDS011;33812;46.480;6.834;2023-07-13T18:36:29;3.03;;;0.75;;
48034;SDS011;33812;46.480;6.834;2023-07-13T18:40:31;1.65;;;0.70;;
48034;SDS011;33812;46.480;6.834;2023-07-13T18:44:35;7.18;;;1.05;;
48034;SDS011;33812;46.480;6.834;2023-07-13T18:48:37;3.63;;;1.15;;
48034;SDS011;33812;46.480;6.834;2023-07-13T18:52:40;2.47;;;0.80;;
48034;SDS011;33812;46.480;6.834;2023-07-13T18:56:42;3.38;;;1.00;;
48034;SDS011;33812;46.480;6.834;2023-07-13T19:00:45;3.92;;;0.82;;
48034;SDS011;33812;46.480;6.834;2023-07-13T19:04:49;3.25;;;0.90;;
48034;SDS011;33812;46.480;6.834;2023-07-13T19:08:50;1.42;;;0.80;;
48034;SDS011;33812;46.480;6.834;2023-07-13T19:12:54;3.63;;;0.82;;
48034;SDS011;33812;46.480;6.834;2023-07-13T19:17:00;5.65;;;1.00;;
48034;SDS011;33812;46.480;6.834;2023-07-13T19:21:03;13.25;;;1.80;;
48034;SDS011;33812;46.480;6.834;2023-07-13T19:25:13;8.30;;;2.28;;
48034;SDS011;33812;46.480;6.834;2023-07-13T19:29:17;7.25;;;1.27;;
48034;SDS011;33812;46.480;6.834;2023-07-13T19:33:22;7.63;;;1.95;;
48034;SDS011;33812;46.480;6.834;2023-07-13T19:37:24;6.97;;;2.22;;
48034;SDS011;33812;46.480;6.834;2023-07-13T19:41:26;12.63;;;2.05;;
48034;SDS011;33812;46.480;6.834;2023-07-13T19:45:28;8.20;;;1.67;;
48034;SDS011;33812;46.480;6.834;2023-07-13T19:49:31;7.05;;;1.23;;
48034;SDS011;33812;46.480;6.834;2023-07-13T19:53:33;6.30;;;1.35;;
48034;SDS011;33812;46.480;6.834;2023-07-13T19:57:35;3.92;;;1.50;;
48034;SDS011;33812;46.480;6.834;2023-07-13T20:01:36;4.95;;;1.20;;
48034;SDS011;33812;46.480;6.834;2023-07-13T20:05:40;10.35;;;1.80;;
48034;SDS011;33812;46.480;6.834;2023-07-13T20:09:46;3.78;;;1.20;;
48034;SDS011;33812;46.480;6.834;2023-07-13T20:13:50;4.22;;;1.40;;
48034;SDS011;33812;46.480;6.834;2023-07-13T20:17:52;5.28;;;1.30;;
48034;SDS011;33812;46.480;6.834;2023-07-13T20:21:57;3.03;;;1.10;;
48034;SDS011;33812;46.480;6.834;2023-07-13T20:25:58;3.47;;;1.33;;
48034;SDS011;33812;46.480;6.834;2023-07-13T20:30:01;3.70;;;1.00;;
48034;SDS011;33812;46.480;6.834;2023-07-13T20:34:05;4.88;;;1.20;;
48034;SDS011;33812;46.480;6.834;2023-07-13T20:38:11;3.40;;;1.25;;
48034;SDS011;33812;46.480;6.834;2023-07-13T20:42:14;2.83;;;1.05;;
48034;SDS011;33812;46.480;6.834;2023-07-13T20:46:19;1.70;;;0.90;;
48034;SDS011;33812;46.480;6.834;2023-07-13T20:50:21;3.88;;;1.15;;
48034;SDS011;33812;46.480;6.834;2023-07-13T20:54:27;3.65;;;1.00;;
48034;SDS011;33812;46.480;6.834;2023-07-13T20:58:29;3.78;;;0.90;;
48034;SDS011;33812;46.480;6.834;2023-07-13T21:02:31;3.38;;;1.23;;
48034;SDS011;33812;46.480;6.834;2023-07-13T21:06:34;6.53;;;1.00;;
48034;SDS011;33812;46.480;6.834;2023-07-13T21:10:38;2.47;;;0.80;;
48034;SDS011;33812;46.480;6.834;2023-07-13T21:14:40;2.67;;;0.98;;
48034;SDS011;33812;46.480;6.834;2023-07-13T21:18:42;4.75;;;1.08;;
48034;SDS011;33812;46.480;6.834;2023-07-13T21:22:45;1.70;;;1.00;;
48034;SDS011;33812;46.480;6.834;2023-07-13T21:26:48;4.18;;;1.00;;
48034;SDS011;33812;46.480;6.834;2023-07-13T21:30:50;4.40;;;1.13;;
48034;SDS011;33812;46.480;6.834;2023-07-13T21:34:55;4.90;;;1.50;;
48034;SDS011;33812;46.480;6.834;2023-07-13T21:38:58;1.88;;;0.75;;
48034;SDS011;33812;46.480;6.834;2023-07-13T21:43:04;2.28;;;1.08;;
48034;SDS011;33812;46.480;6.834;2023-07-13T21:47:07;3.70;;;1.27;;
48034;SDS011;33812;46.480;6.834;2023-07-13T21:51:14;3.45;;;1.15;;
48034;SDS011;33812;46.480;6.834;2023-07-13T21:55:21;3.13;;;1.02;;
48034;SDS011;33812;46.480;6.834;2023-07-13T21:59:27;3.55;;;1.13;;
48034;SDS011;33812;46.480;6.834;2023-07-13T22:03:30;3.83;;;1.15;;
48034;SDS011;33812;46.480;6.834;2023-07-13T22:07:35;5.28;;;1.17;;
48034;SDS011;33812;46.480;6.834;2023-07-13T22:11:36;5.85;;;0.80;;
48034;SDS011;33812;46.480;6.834;2023-07-13T22:15:40;1.83;;;1.08;;
48034;SDS011;33812;46.480;6.834;2023-07-13T22:19:42;2.23;;;0.90;;
48034;SDS011;33812;46.480;6.834;2023-07-13T22:23:44;3.38;;;1.00;;
48034;SDS011;33812;46.480;6.834;2023-07-13T22:27:47;1.55;;;0.88;;
48034;SDS011;33812;46.480;6.834;2023-07-13T22:31:50;1.70;;;0.73;;
48034;SDS011;33812;46.480;6.834;2023-07-13T22:35:52;2.65;;;1.10;;
48034;SDS011;33812;46.480;6.834;2023-07-13T22:39:54;1.63;;;0.70;;
48034;SDS011;33812;46.480;6.834;2023-07-13T22:43:56;2.63;;;0.90;;
48034;SDS011;33812;46.480;6.834;2023-07-13T22:47:59;2.28;;;0.88;;
48034;SDS011;33812;46.480;6.834;2023-07-13T22:52:02;1.55;;;0.90;;
48034;SDS011;33812;46.480;6.834;2023-07-13T22:56:05;2.05;;;0.73;;
48034;SDS011;33812;46.480;6.834;2023-07-13T23:00:11;1.95;;;0.85;;
48034;SDS011;33812;46.480;6.834;2023-07-13T23:04:19;6.90;;;1.40;;
48034;SDS011;33812;46.480;6.834;2023-07-13T23:08:25;2.80;;;1.15;;
48034;SDS011;33812;46.480;6.834;2023-07-13T23:12:26;2.40;;;1.10;;
48034;SDS011;33812;46.480;6.834;2023-07-13T23:16:30;3.13;;;1.13;;
48034;SDS011;33812;46.480;6.834;2023-07-13T23:20:34;4.43;;;1.17;;
48034;SDS011;33812;46.480;6.834;2023-07-13T23:24:38;4.55;;;1.10;;
48034;SDS011;33812;46.480;6.834;2023-07-13T23:28:41;8.40;;;0.80;;
48034;SDS011;33812;46.480;6.834;2023-07-13T23:32:44;4.63;;;1.00;;
48034;SDS011;33812;46.480;6.834;2023-07-13T23:36:48;2.55;;;0.90;;
48034;SDS011;33812;46.480;6.834;2023-07-13T23:40:50;2.03;;;1.02;;
48034;SDS011;33812;46.480;6.834;2023-07-13T23:44:52;3.00;;;0.93;;
48034;SDS011;33812;46.480;6.834;2023-07-13T23:48:57;3.38;;;1.02;;
48034;SDS011;33812;46.480;6.834;2023-07-13T23:57:03;3.60;;;0.80;;
